sensor_id;sensor_type;location;lat;lon;timestamp;temperature;humidity
12634;DHT22;6382;48.614;8.880;2024-02-04T00:01:54;6.80;99.90
12634;DHT22;6382;48.614;8.880;2024-02-04T00:04:19;6.80;99.90
12634;DHT22;6382;48.614;8.880;2024-02-04T00:06:45;8.40;99.90
12634;DHT22;6382;48.614;8.880;2024-02-04T00:09:11;5.00;99.90
12634;DHT22;6382;48.614;8.880;2024-02-04T00:11:36;8.20;99.90
12634;DHT22;6382;48.614;8.880;2024-02-04T00:14:01;6.70;99.90
12634;DHT22;6382;48.614;8.880;2024-02-04T00:16:28;6.70;99.90
12634;DHT22;6382;48.614;8.880;2024-02-04T00:18:53;6.70;99.90
12634;DHT22;6382;48.614;8.880;2024-02-04T00:21:19;7.10;99.90
12634;DHT22;6382;48.614;8.880;2024-02-04T00:23:44;7.70;99.90
12634;DHT22;6382;48.614;8.880;2024-02-04T00:26:10;6.70;99.90
12634;DHT22;6382;48.614;8.880;2024-02-04T00:28:35;7.30;99.90
12634;DHT22;6382;48.614;8.880;2024-02-04T00:31:00;7.70;99.90
12634;DHT22;6382;48.614;8.880;2024-02-04T00:33:26;6.70;99.90
12634;DHT22;6382;48.614;8.880;2024-02-04T00:35:51;6.60;99.90
12634;DHT22;6382;48.614;8.880;2024-02-04T00:38:17;6.80;99.90
12634;DHT22;6382;48.614;8.880;2024-02-04T00:40:42;6.60;99.90
12634;DHT22;6382;48.614;8.880;2024-02-04T00:43:08;6.70;99.90
12634;DHT22;6382;48.614;8.880;2024-02-04T00:45:33;8.00;99.90
12634;DHT22;6382;48.614;8.880;2024-02-04T00:47:59;6.70;99.90
12634;DHT22;6382;48.614;8.880;2024-02-04T00:50:24;6.60;99.90
12634;DHT22;6382;48.614;8.880;2024-02-04T00:52:50;6.60;99.90
12634;DHT22;6382;48.614;8.880;2024-02-04T00:55:19;6.60;99.90
12634;DHT22;6382;48.614;8.880;2024-02-04T00:57:44;6.50;99.90
12634;DHT22;6382;48.614;8.880;2024-02-04T01:00:10;8.20;99.90
12634;DHT22;6382;48.614;8.880;2024-02-04T01:02:35;6.50;99.90
12634;DHT22;6382;48.614;8.880;2024-02-04T01:05:01;6.50;99.90
12634;DHT22;6382;48.614;8.880;2024-02-04T01:07:26;6.50;99.90
12634;DHT22;6382;48.614;8.880;2024-02-04T01:09:52;7.40;99.90
12634;DHT22;6382;48.614;8.880;2024-02-04T01:12:17;6.50;99.90
12634;DHT22;6382;48.614;8.880;2024-02-04T01:14:43;8.10;99.90
12634;DHT22;6382;48.614;8.880;2024-02-04T01:17:08;6.50;99.90
12634;DHT22;6382;48.614;8.880;2024-02-04T01:19:34;6.50;99.90
12634;DHT22;6382;48.614;8.880;2024-02-04T01:21:59;6.40;99.90
12634;DHT22;6382;48.614;8.880;2024-02-04T01:24:25;6.40;99.90
12634;DHT22;6382;48.614;8.880;2024-02-04T01:26:50;6.40;99.90
12634;DHT22;6382;48.614;8.880;2024-02-04T01:29:16;6.30;99.90
12634;DHT22;6382;48.614;8.880;2024-02-04T01:31:41;8.10;99.90
12634;DHT22;6382;48.614;8.880;2024-02-04T01:34:07;6.30;99.90
12634;DHT22;6382;48.614;8.880;2024-02-04T01:36:32;6.20;99.90
12634;DHT22;6382;48.614;8.880;2024-02-04T01:38:58;6.20;99.90
12634;DHT22;6382;48.614;8.880;2024-02-04T01:41:23;6.20;99.90
12634;DHT22;6382;48.614;8.880;2024-02-04T01:43:51;6.10;99.90
12634;DHT22;6382;48.614;8.880;2024-02-04T01:46:17;6.00;99.90
12634;DHT22;6382;48.614;8.880;2024-02-04T01:48:43;6.00;99.90
12634;DHT22;6382;48.614;8.880;2024-02-04T01:51:08;5.90;99.90
12634;DHT22;6382;48.614;8.880;2024-02-04T01:53:34;6.50;99.90
12634;DHT22;6382;48.614;8.880;2024-02-04T01:56:02;5.90;99.90
12634;DHT22;6382;48.614;8.880;2024-02-04T01:58:27;5.90;99.90
12634;DHT22;6382;48.614;8.880;2024-02-04T02:00:53;7.40;99.90
12634;DHT22;6382;48.614;8.880;2024-02-04T02:03:18;5.90;99.90
12634;DHT22;6382;48.614;8.880;2024-02-04T02:05:45;5.90;99.90
12634;DHT22;6382;48.614;8.880;2024-02-04T02:08:10;6.00;99.90
12634;DHT22;6382;48.614;8.880;2024-02-04T02:10:36;6.00;99.90
12634;DHT22;6382;48.614;8.880;2024-02-04T02:13:16;6.00;99.90
12634;DHT22;6382;48.614;8.880;2024-02-04T02:15:48;6.00;99.90
12634;DHT22;6382;48.614;8.880;2024-02-04T02:18:16;6.10;99.90
12634;DHT22;6382;48.614;8.880;2024-02-04T02:23:34;6.20;99.90
12634;DHT22;6382;48.614;8.880;2024-02-04T02:26:00;6.20;99.90
12634;DHT22;6382;48.614;8.880;2024-02-04T02:28:25;4.40;99.90
12634;DHT22;6382;48.614;8.880;2024-02-04T02:30:51;7.60;99.90
12634;DHT22;6382;48.614;8.880;2024-02-04T02:33:16;6.10;99.90
12634;DHT22;6382;48.614;8.880;2024-02-04T02:35:43;6.20;99.90
12634;DHT22;6382;48.614;8.880;2024-02-04T02:43:10;6.10;99.90
12634;DHT22;6382;48.614;8.880;2024-02-04T02:45:36;6.10;99.90
12634;DHT22;6382;48.614;8.880;2024-02-04T02:48:03;6.10;99.90
12634;DHT22;6382;48.614;8.880;2024-02-04T02:50:31;6.10;99.90
12634;DHT22;6382;48.614;8.880;2024-02-04T02:52:56;7.50;99.90
12634;DHT22;6382;48.614;8.880;2024-02-04T02:55:22;6.10;99.90
12634;DHT22;6382;48.614;8.880;2024-02-04T02:57:47;6.20;99.90
12634;DHT22;6382;48.614;8.880;2024-02-04T03:00:13;7.00;99.90
12634;DHT22;6382;48.614;8.880;2024-02-04T03:02:39;6.10;99.90
12634;DHT22;6382;48.614;8.880;2024-02-04T03:05:04;7.50;99.90
12634;DHT22;6382;48.614;8.880;2024-02-04T03:07:30;6.10;99.90
12634;DHT22;6382;48.614;8.880;2024-02-04T03:09:56;6.20;99.90
12634;DHT22;6382;48.614;8.880;2024-02-04T03:12:21;8.10;99.90
12634;DHT22;6382;48.614;8.880;2024-02-04T03:14:47;6.20;99.90
12634;DHT22;6382;48.614;8.880;2024-02-04T03:17:12;6.20;99.90
12634;DHT22;6382;48.614;8.880;2024-02-04T03:19:38;6.20;99.90
12634;DHT22;6382;48.614;8.880;2024-02-04T03:22:04;6.90;99.90
12634;DHT22;6382;48.614;8.880;2024-02-04T03:24:29;7.80;99.90
12634;DHT22;6382;48.614;8.880;2024-02-04T03:26:55;6.10;99.90
12634;DHT22;6382;48.614;8.880;2024-02-04T03:29:20;7.00;99.90
12634;DHT22;6382;48.614;8.880;2024-02-04T03:31:46;6.10;99.90
12634;DHT22;6382;48.614;8.880;2024-02-04T03:34:12;6.10;99.90
12634;DHT22;6382;48.614;8.880;2024-02-04T03:36:37;6.20;99.90
12634;DHT22;6382;48.614;8.880;2024-02-04T03:39:06;6.20;99.90
12634;DHT22;6382;48.614;8.880;2024-02-04T03:41:31;6.30;99.90
12634;DHT22;6382;48.614;8.880;2024-02-04T03:43:56;7.10;99.90
12634;DHT22;6382;48.614;8.880;2024-02-04T03:46:22;6.10;99.90
12634;DHT22;6382;48.614;8.880;2024-02-04T03:48:48;6.20;99.90
12634;DHT22;6382;48.614;8.880;2024-02-04T03:51:17;6.20;99.90
12634;DHT22;6382;48.614;8.880;2024-02-04T03:53:43;6.20;99.90
12634;DHT22;6382;48.614;8.880;2024-02-04T03:56:08;6.20;99.90
12634;DHT22;6382;48.614;8.880;2024-02-04T03:58:34;6.20;99.90
12634;DHT22;6382;48.614;8.880;2024-02-04T04:00:59;6.10;99.90
12634;DHT22;6382;48.614;8.880;2024-02-04T04:03:25;6.10;99.90
12634;DHT22;6382;48.614;8.880;2024-02-04T04:05:51;6.70;99.90
12634;DHT22;6382;48.614;8.880;2024-02-04T04:08:18;7.80;99.90
12634;DHT22;6382;48.614;8.880;2024-02-04T04:10:44;6.10;99.90
12634;DHT22;6382;48.614;8.880;2024-02-04T04:13:09;6.10;99.90
12634;DHT22;6382;48.614;8.880;2024-02-04T04:15:35;6.00;99.90
12634;DHT22;6382;48.614;8.880;2024-02-04T04:18:00;6.00;99.90
12634;DHT22;6382;48.614;8.880;2024-02-04T04:20:26;6.00;99.90
12634;DHT22;6382;48.614;8.880;2024-02-04T04:22:51;6.00;99.90
12634;DHT22;6382;48.614;8.880;2024-02-04T04:25:17;6.00;99.90
12634;DHT22;6382;48.614;8.880;2024-02-04T04:27:43;6.00;99.90
12634;DHT22;6382;48.614;8.880;2024-02-04T04:30:09;5.70;99.90
12634;DHT22;6382;48.614;8.880;2024-02-04T04:32:35;5.90;99.90
12634;DHT22;6382;48.614;8.880;2024-02-04T04:35:00;6.00;99.90
12634;DHT22;6382;48.614;8.880;2024-02-04T04:37:26;7.50;99.90
12634;DHT22;6382;48.614;8.880;2024-02-04T04:39:51;5.90;99.90
12634;DHT22;6382;48.614;8.880;2024-02-04T04:42:17;5.90;99.90
12634;DHT22;6382;48.614;8.880;2024-02-04T04:44:42;5.90;99.90
12634;DHT22;6382;48.614;8.880;2024-02-04T04:47:08;5.80;99.90
12634;DHT22;6382;48.614;8.880;2024-02-04T04:49:34;5.80;99.90
12634;DHT22;6382;48.614;8.880;2024-02-04T04:51:59;5.70;99.90
12634;DHT22;6382;48.614;8.880;2024-02-04T04:54:25;5.80;99.90
12634;DHT22;6382;48.614;8.880;2024-02-04T04:56:54;5.70;99.90
12634;DHT22;6382;48.614;8.880;2024-02-04T04:59:19;5.60;99.90
12634;DHT22;6382;48.614;8.880;2024-02-04T05:01:45;5.50;99.90
12634;DHT22;6382;48.614;8.880;2024-02-04T05:04:11;6.00;99.90
12634;DHT22;6382;48.614;8.880;2024-02-04T05:06:37;5.50;99.90
12634;DHT22;6382;48.614;8.880;2024-02-04T05:09:02;5.50;99.90
12634;DHT22;6382;48.614;8.880;2024-02-04T05:11:28;6.50;99.90
12634;DHT22;6382;48.614;8.880;2024-02-04T05:13:53;6.30;99.90
12634;DHT22;6382;48.614;8.880;2024-02-04T05:16:20;5.50;99.90
12634;DHT22;6382;48.614;8.880;2024-02-04T05:18:45;5.70;99.90
12634;DHT22;6382;48.614;8.880;2024-02-04T05:21:11;7.00;99.90
12634;DHT22;6382;48.614;8.880;2024-02-04T05:23:36;7.10;99.90
12634;DHT22;6382;48.614;8.880;2024-02-04T05:26:05;5.70;99.90
12634;DHT22;6382;48.614;8.880;2024-02-04T05:28:31;5.80;99.90
12634;DHT22;6382;48.614;8.880;2024-02-04T05:30:56;5.80;99.90
12634;DHT22;6382;48.614;8.880;2024-02-04T05:33:22;5.90;99.90
12634;DHT22;6382;48.614;8.880;2024-02-04T05:35:47;5.90;99.90
12634;DHT22;6382;48.614;8.880;2024-02-04T05:38:13;5.90;99.90
12634;DHT22;6382;48.614;8.880;2024-02-04T05:40:38;5.90;99.90
12634;DHT22;6382;48.614;8.880;2024-02-04T05:43:05;5.90;99.90
12634;DHT22;6382;48.614;8.880;2024-02-04T05:45:33;5.90;99.90
12634;DHT22;6382;48.614;8.880;2024-02-04T05:47:58;6.00;99.90
12634;DHT22;6382;48.614;8.880;2024-02-04T05:50:24;7.30;99.90
12634;DHT22;6382;48.614;8.880;2024-02-04T05:52:49;6.00;99.90
12634;DHT22;6382;48.614;8.880;2024-02-04T05:55:15;7.30;99.90
12634;DHT22;6382;48.614;8.880;2024-02-04T05:57:40;7.10;99.90
12634;DHT22;6382;48.614;8.880;2024-02-04T06:00:06;5.90;99.90
12634;DHT22;6382;48.614;8.880;2024-02-04T06:02:33;5.90;99.90
12634;DHT22;6382;48.614;8.880;2024-02-04T06:04:58;5.90;99.90
12634;DHT22;6382;48.614;8.880;2024-02-04T06:07:24;5.80;99.90
12634;DHT22;6382;48.614;8.880;2024-02-04T06:09:49;7.90;99.90
12634;DHT22;6382;48.614;8.880;2024-02-04T06:12:15;5.80;99.90
12634;DHT22;6382;48.614;8.880;2024-02-04T06:14:40;5.90;99.90
12634;DHT22;6382;48.614;8.880;2024-02-04T06:17:06;5.90;99.90
12634;DHT22;6382;48.614;8.880;2024-02-04T06:19:34;5.90;99.90
12634;DHT22;6382;48.614;8.880;2024-02-04T06:21:59;5.90;99.90
12634;DHT22;6382;48.614;8.880;2024-02-04T06:24:25;5.90;99.90
12634;DHT22;6382;48.614;8.880;2024-02-04T06:26:50;5.90;99.90
12634;DHT22;6382;48.614;8.880;2024-02-04T06:29:16;6.00;99.90
12634;DHT22;6382;48.614;8.880;2024-02-04T06:31:45;5.90;99.90
12634;DHT22;6382;48.614;8.880;2024-02-04T06:34:11;5.90;99.90
12634;DHT22;6382;48.614;8.880;2024-02-04T06:36:36;5.90;99.90
12634;DHT22;6382;48.614;8.880;2024-02-04T06:39:02;5.90;99.90
12634;DHT22;6382;48.614;8.880;2024-02-04T06:41:27;6.00;99.90
12634;DHT22;6382;48.614;8.880;2024-02-04T06:43:52;7.30;99.90
12634;DHT22;6382;48.614;8.880;2024-02-04T06:46:25;6.00;99.90
12634;DHT22;6382;48.614;8.880;2024-02-04T06:48:51;5.90;99.90
12634;DHT22;6382;48.614;8.880;2024-02-04T06:51:16;5.90;99.90
12634;DHT22;6382;48.614;8.880;2024-02-04T06:53:42;5.90;99.90
12634;DHT22;6382;48.614;8.880;2024-02-04T06:56:07;6.00;99.90
12634;DHT22;6382;48.614;8.880;2024-02-04T06:58:33;6.00;99.90
12634;DHT22;6382;48.614;8.880;2024-02-04T07:00:58;5.90;99.90
12634;DHT22;6382;48.614;8.880;2024-02-04T07:03:24;6.00;99.90
12634;DHT22;6382;48.614;8.880;2024-02-04T07:05:49;6.00;99.90
12634;DHT22;6382;48.614;8.880;2024-02-04T07:08:15;6.00;99.90
12634;DHT22;6382;48.614;8.880;2024-02-04T07:10:41;6.00;99.90
12634;DHT22;6382;48.614;8.880;2024-02-04T07:13:06;6.10;99.90
12634;DHT22;6382;48.614;8.880;2024-02-04T07:15:33;6.10;99.90
12634;DHT22;6382;48.614;8.880;2024-02-04T07:17:58;6.10;99.90
12634;DHT22;6382;48.614;8.880;2024-02-04T07:20:24;6.20;99.90
12634;DHT22;6382;48.614;8.880;2024-02-04T07:22:49;6.20;99.90
12634;DHT22;6382;48.614;8.880;2024-02-04T07:25:15;6.20;99.90
12634;DHT22;6382;48.614;8.880;2024-02-04T07:27:40;6.20;99.90
12634;DHT22;6382;48.614;8.880;2024-02-04T07:30:06;6.20;99.90
12634;DHT22;6382;48.614;8.880;2024-02-04T07:32:32;6.20;99.90
12634;DHT22;6382;48.614;8.880;2024-02-04T07:34:59;6.20;99.90
12634;DHT22;6382;48.614;8.880;2024-02-04T07:37:25;6.20;99.90
12634;DHT22;6382;48.614;8.880;2024-02-04T07:39:50;6.20;99.90
12634;DHT22;6382;48.614;8.880;2024-02-04T07:42:16;6.20;99.90
12634;DHT22;6382;48.614;8.880;2024-02-04T07:44:41;6.20;99.90
12634;DHT22;6382;48.614;8.880;2024-02-04T07:47:06;6.30;99.90
12634;DHT22;6382;48.614;8.880;2024-02-04T07:49:32;6.30;99.90
12634;DHT22;6382;48.614;8.880;2024-02-04T07:51:57;6.30;99.90
12634;DHT22;6382;48.614;8.880;2024-02-04T07:54:23;6.40;99.90
12634;DHT22;6382;48.614;8.880;2024-02-04T07:56:49;6.50;99.90
12634;DHT22;6382;48.614;8.880;2024-02-04T07:59:14;6.50;99.90
12634;DHT22;6382;48.614;8.880;2024-02-04T08:01:39;6.50;99.90
12634;DHT22;6382;48.614;8.880;2024-02-04T08:04:05;6.50;99.90
12634;DHT22;6382;48.614;8.880;2024-02-04T08:06:33;6.50;99.90
12634;DHT22;6382;48.614;8.880;2024-02-04T08:09:00;6.60;99.90
12634;DHT22;6382;48.614;8.880;2024-02-04T08:11:25;6.60;99.90
12634;DHT22;6382;48.614;8.880;2024-02-04T08:13:51;6.70;99.90
12634;DHT22;6382;48.614;8.880;2024-02-04T08:16:16;6.70;99.90
12634;DHT22;6382;48.614;8.880;2024-02-04T08:18:41;6.70;99.90
12634;DHT22;6382;48.614;8.880;2024-02-04T08:21:07;6.80;99.90
12634;DHT22;6382;48.614;8.880;2024-02-04T08:23:32;8.30;99.90
12634;DHT22;6382;48.614;8.880;2024-02-04T08:25:58;6.90;99.90
12634;DHT22;6382;48.614;8.880;2024-02-04T08:28:24;6.90;99.90
12634;DHT22;6382;48.614;8.880;2024-02-04T08:30:49;6.90;99.90
12634;DHT22;6382;48.614;8.880;2024-02-04T08:33:15;7.00;99.90
12634;DHT22;6382;48.614;8.880;2024-02-04T08:35:41;7.00;99.90
12634;DHT22;6382;48.614;8.880;2024-02-04T08:38:06;7.10;99.90
12634;DHT22;6382;48.614;8.880;2024-02-04T08:40:31;7.20;99.90
12634;DHT22;6382;48.614;8.880;2024-02-04T08:42:57;7.30;99.90
12634;DHT22;6382;48.614;8.880;2024-02-04T08:45:22;7.40;99.90
12634;DHT22;6382;48.614;8.880;2024-02-04T08:47:48;7.40;99.90
12634;DHT22;6382;48.614;8.880;2024-02-04T08:50:13;7.50;99.90
12634;DHT22;6382;48.614;8.880;2024-02-04T08:52:39;7.50;99.90
12634;DHT22;6382;48.614;8.880;2024-02-04T08:55:04;7.60;99.90
12634;DHT22;6382;48.614;8.880;2024-02-04T08:57:30;7.60;99.90
12634;DHT22;6382;48.614;8.880;2024-02-04T08:59:56;7.60;99.90
12634;DHT22;6382;48.614;8.880;2024-02-04T09:02:21;7.70;99.90
12634;DHT22;6382;48.614;8.880;2024-02-04T09:04:46;7.80;99.90
12634;DHT22;6382;48.614;8.880;2024-02-04T09:07:12;7.70;99.90
12634;DHT22;6382;48.614;8.880;2024-02-04T09:09:37;7.70;99.90
12634;DHT22;6382;48.614;8.880;2024-02-04T09:12:03;7.70;99.90
12634;DHT22;6382;48.614;8.880;2024-02-04T09:14:28;7.70;99.90
12634;DHT22;6382;48.614;8.880;2024-02-04T09:16:54;7.80;99.90
12634;DHT22;6382;48.614;8.880;2024-02-04T09:19:19;7.80;99.90
12634;DHT22;6382;48.614;8.880;2024-02-04T09:21:45;7.80;99.90
12634;DHT22;6382;48.614;8.880;2024-02-04T09:24:10;7.80;99.90
12634;DHT22;6382;48.614;8.880;2024-02-04T09:26:36;7.80;99.90
12634;DHT22;6382;48.614;8.880;2024-02-04T09:29:02;7.80;99.90
12634;DHT22;6382;48.614;8.880;2024-02-04T09:31:27;7.90;99.90
12634;DHT22;6382;48.614;8.880;2024-02-04T09:33:53;7.90;99.90
12634;DHT22;6382;48.614;8.880;2024-02-04T09:36:19;7.90;99.90
12634;DHT22;6382;48.614;8.880;2024-02-04T09:38:44;9.50;99.90
12634;DHT22;6382;48.614;8.880;2024-02-04T09:41:10;7.90;99.90
12634;DHT22;6382;48.614;8.880;2024-02-04T09:43:35;7.90;99.90
12634;DHT22;6382;48.614;8.880;2024-02-04T09:46:01;8.00;99.90
12634;DHT22;6382;48.614;8.880;2024-02-04T09:48:29;8.00;99.90
12634;DHT22;6382;48.614;8.880;2024-02-04T09:50:55;8.10;99.90
12634;DHT22;6382;48.614;8.880;2024-02-04T09:53:21;8.20;99.90
12634;DHT22;6382;48.614;8.880;2024-02-04T09:55:49;8.30;99.90
12634;DHT22;6382;48.614;8.880;2024-02-04T09:58:15;8.40;99.90
12634;DHT22;6382;48.614;8.880;2024-02-04T10:00:41;8.30;99.90
12634;DHT22;6382;48.614;8.880;2024-02-04T10:03:09;8.30;99.90
12634;DHT22;6382;48.614;8.880;2024-02-04T10:05:35;8.30;99.90
12634;DHT22;6382;48.614;8.880;2024-02-04T10:08:00;8.30;99.90
12634;DHT22;6382;48.614;8.880;2024-02-04T10:10:26;8.40;99.90
12634;DHT22;6382;48.614;8.880;2024-02-04T10:12:51;8.40;99.90
12634;DHT22;6382;48.614;8.880;2024-02-04T10:15:17;8.50;99.90
12634;DHT22;6382;48.614;8.880;2024-02-04T10:17:45;9.20;99.90
12634;DHT22;6382;48.614;8.880;2024-02-04T10:20:10;8.60;99.90
12634;DHT22;6382;48.614;8.880;2024-02-04T10:22:37;8.90;99.90
12634;DHT22;6382;48.614;8.880;2024-02-04T10:25:09;8.80;99.90
12634;DHT22;6382;48.614;8.880;2024-02-04T10:27:37;8.80;99.90
12634;DHT22;6382;48.614;8.880;2024-02-04T10:30:03;8.80;99.90
12634;DHT22;6382;48.614;8.880;2024-02-04T10:32:29;8.70;99.90
12634;DHT22;6382;48.614;8.880;2024-02-04T10:34:57;8.70;99.90
12634;DHT22;6382;48.614;8.880;2024-02-04T10:37:22;8.70;99.90
12634;DHT22;6382;48.614;8.880;2024-02-04T10:39:48;8.70;99.90
12634;DHT22;6382;48.614;8.880;2024-02-04T10:42:13;8.60;99.90
12634;DHT22;6382;48.614;8.880;2024-02-04T10:44:40;8.70;99.90
12634;DHT22;6382;48.614;8.880;2024-02-04T10:47:08;8.80;99.90
12634;DHT22;6382;48.614;8.880;2024-02-04T10:49:38;8.80;99.90
12634;DHT22;6382;48.614;8.880;2024-02-04T10:52:06;8.70;99.90
12634;DHT22;6382;48.614;8.880;2024-02-04T10:54:33;8.70;99.90
12634;DHT22;6382;48.614;8.880;2024-02-04T10:57:05;9.40;99.90
12634;DHT22;6382;48.614;8.880;2024-02-04T10:59:31;8.70;99.90
12634;DHT22;6382;48.614;8.880;2024-02-04T11:01:57;8.70;99.90
12634;DHT22;6382;48.614;8.880;2024-02-04T11:04:23;8.60;99.90
12634;DHT22;6382;48.614;8.880;2024-02-04T11:06:49;8.60;99.90
12634;DHT22;6382;48.614;8.880;2024-02-04T11:09:15;8.50;99.90
12634;DHT22;6382;48.614;8.880;2024-02-04T11:11:41;8.60;99.90
12634;DHT22;6382;48.614;8.880;2024-02-04T11:14:12;8.70;99.90
12634;DHT22;6382;48.614;8.880;2024-02-04T11:19:33;8.70;99.90
12634;DHT22;6382;48.614;8.880;2024-02-04T11:22:11;8.80;99.90
12634;DHT22;6382;48.614;8.880;2024-02-04T11:24:44;8.90;99.90
12634;DHT22;6382;48.614;8.880;2024-02-04T11:27:13;9.20;99.90
12634;DHT22;6382;48.614;8.880;2024-02-04T11:29:39;10.20;99.90
12634;DHT22;6382;48.614;8.880;2024-02-04T11:32:05;9.50;99.90
12634;DHT22;6382;48.614;8.880;2024-02-04T11:34:30;9.40;99.90
12634;DHT22;6382;48.614;8.880;2024-02-04T11:36:56;9.60;99.90
12634;DHT22;6382;48.614;8.880;2024-02-04T11:39:21;9.70;99.90
12634;DHT22;6382;48.614;8.880;2024-02-04T11:41:48;9.70;99.90
12634;DHT22;6382;48.614;8.880;2024-02-04T11:44:23;9.70;99.90
12634;DHT22;6382;48.614;8.880;2024-02-04T11:46:49;9.70;99.90
12634;DHT22;6382;48.614;8.880;2024-02-04T11:49:15;9.80;99.90
12634;DHT22;6382;48.614;8.880;2024-02-04T11:51:44;9.80;99.90
12634;DHT22;6382;48.614;8.880;2024-02-04T11:54:10;9.90;99.90
12634;DHT22;6382;48.614;8.880;2024-02-04T11:56:36;10.00;99.90
12634;DHT22;6382;48.614;8.880;2024-02-04T11:59:02;9.80;99.90
12634;DHT22;6382;48.614;8.880;2024-02-04T12:01:30;9.90;99.90
12634;DHT22;6382;48.614;8.880;2024-02-04T12:03:56;9.90;99.90
12634;DHT22;6382;48.614;8.880;2024-02-04T12:06:21;10.00;99.90
12634;DHT22;6382;48.614;8.880;2024-02-04T12:08:47;10.00;99.90
12634;DHT22;6382;48.614;8.880;2024-02-04T12:11:12;10.20;99.90
12634;DHT22;6382;48.614;8.880;2024-02-04T12:13:39;11.60;99.90
12634;DHT22;6382;48.614;8.880;2024-02-04T12:16:05;11.40;99.90
12634;DHT22;6382;48.614;8.880;2024-02-04T12:18:33;10.30;99.90
12634;DHT22;6382;48.614;8.880;2024-02-04T12:20:59;10.30;99.90
12634;DHT22;6382;48.614;8.880;2024-02-04T12:23:25;10.30;99.90
12634;DHT22;6382;48.614;8.880;2024-02-04T12:25:52;10.80;99.90
12634;DHT22;6382;48.614;8.880;2024-02-04T12:28:18;10.30;99.90
12634;DHT22;6382;48.614;8.880;2024-02-04T12:30:54;10.20;99.90
12634;DHT22;6382;48.614;8.880;2024-02-04T12:33:25;10.10;99.90
12634;DHT22;6382;48.614;8.880;2024-02-04T12:35:51;10.00;99.90
12634;DHT22;6382;48.614;8.880;2024-02-04T12:38:17;10.00;99.90
12634;DHT22;6382;48.614;8.880;2024-02-04T12:40:46;9.90;99.90
12634;DHT22;6382;48.614;8.880;2024-02-04T12:43:11;9.80;99.90
12634;DHT22;6382;48.614;8.880;2024-02-04T12:48:15;9.70;99.90
12634;DHT22;6382;48.614;8.880;2024-02-04T12:50:41;9.70;99.90
12634;DHT22;6382;48.614;8.880;2024-02-04T12:53:07;9.70;99.90
12634;DHT22;6382;48.614;8.880;2024-02-04T12:55:34;9.70;99.90
12634;DHT22;6382;48.614;8.880;2024-02-04T12:58:03;9.70;99.90
12634;DHT22;6382;48.614;8.880;2024-02-04T13:00:35;9.70;99.90
12634;DHT22;6382;48.614;8.880;2024-02-04T13:03:04;9.80;99.90
12634;DHT22;6382;48.614;8.880;2024-02-04T13:05:30;9.80;99.90
12634;DHT22;6382;48.614;8.880;2024-02-04T13:07:58;9.80;99.90
12634;DHT22;6382;48.614;8.880;2024-02-04T13:10:24;9.90;99.90
12634;DHT22;6382;48.614;8.880;2024-02-04T13:15:29;10.10;99.90
12634;DHT22;6382;48.614;8.880;2024-02-04T13:17:54;10.10;99.90
12634;DHT22;6382;48.614;8.880;2024-02-04T13:20:20;10.20;99.90
12634;DHT22;6382;48.614;8.880;2024-02-04T13:22:46;10.20;99.90
12634;DHT22;6382;48.614;8.880;2024-02-04T13:25:11;10.20;99.90
12634;DHT22;6382;48.614;8.880;2024-02-04T13:27:37;10.20;99.90
12634;DHT22;6382;48.614;8.880;2024-02-04T13:30:02;10.10;99.90
12634;DHT22;6382;48.614;8.880;2024-02-04T13:32:29;10.20;99.90
12634;DHT22;6382;48.614;8.880;2024-02-04T13:34:54;10.20;99.90
12634;DHT22;6382;48.614;8.880;2024-02-04T13:37:20;10.10;99.90
12634;DHT22;6382;48.614;8.880;2024-02-04T13:39:46;10.00;99.90
12634;DHT22;6382;48.614;8.880;2024-02-04T13:42:11;10.00;99.90
12634;DHT22;6382;48.614;8.880;2024-02-04T13:44:37;9.90;99.90
12634;DHT22;6382;48.614;8.880;2024-02-04T13:47:02;9.90;99.90
12634;DHT22;6382;48.614;8.880;2024-02-04T13:49:28;9.90;99.90
12634;DHT22;6382;48.614;8.880;2024-02-04T13:51:53;9.90;99.90
12634;DHT22;6382;48.614;8.880;2024-02-04T13:54:19;9.80;99.90
12634;DHT22;6382;48.614;8.880;2024-02-04T13:56:44;9.80;99.90
12634;DHT22;6382;48.614;8.880;2024-02-04T13:59:10;9.80;99.90
12634;DHT22;6382;48.614;8.880;2024-02-04T14:01:36;9.80;99.90
12634;DHT22;6382;48.614;8.880;2024-02-04T14:04:01;10.30;99.90
12634;DHT22;6382;48.614;8.880;2024-02-04T14:06:27;9.80;99.90
12634;DHT22;6382;48.614;8.880;2024-02-04T14:08:52;9.70;99.90
12634;DHT22;6382;48.614;8.880;2024-02-04T14:11:18;9.70;99.90
12634;DHT22;6382;48.614;8.880;2024-02-04T14:13:43;9.60;99.90
12634;DHT22;6382;48.614;8.880;2024-02-04T14:16:09;9.50;99.90
12634;DHT22;6382;48.614;8.880;2024-02-04T14:18:34;9.30;99.90
12634;DHT22;6382;48.614;8.880;2024-02-04T14:21:00;9.30;99.90
12634;DHT22;6382;48.614;8.880;2024-02-04T14:23:25;9.20;99.90
12634;DHT22;6382;48.614;8.880;2024-02-04T14:25:51;9.20;99.90
12634;DHT22;6382;48.614;8.880;2024-02-04T14:28:17;9.20;99.90
12634;DHT22;6382;48.614;8.880;2024-02-04T14:30:43;9.20;99.90
12634;DHT22;6382;48.614;8.880;2024-02-04T14:33:08;9.10;99.90
12634;DHT22;6382;48.614;8.880;2024-02-04T14:35:34;9.20;99.90
12634;DHT22;6382;48.614;8.880;2024-02-04T14:37:59;9.20;99.90
12634;DHT22;6382;48.614;8.880;2024-02-04T14:40:25;9.10;99.90
12634;DHT22;6382;48.614;8.880;2024-02-04T14:42:50;9.20;99.90
12634;DHT22;6382;48.614;8.880;2024-02-04T14:45:16;9.10;99.90
12634;DHT22;6382;48.614;8.880;2024-02-04T14:47:44;9.10;99.90
12634;DHT22;6382;48.614;8.880;2024-02-04T14:50:09;9.00;99.90
12634;DHT22;6382;48.614;8.880;2024-02-04T14:52:35;9.10;99.90
12634;DHT22;6382;48.614;8.880;2024-02-04T14:55:00;9.00;99.90
12634;DHT22;6382;48.614;8.880;2024-02-04T14:57:26;9.00;99.90
12634;DHT22;6382;48.614;8.880;2024-02-04T14:59:51;8.90;99.90
12634;DHT22;6382;48.614;8.880;2024-02-04T15:02:17;8.90;99.90
12634;DHT22;6382;48.614;8.880;2024-02-04T15:04:42;8.80;99.90
12634;DHT22;6382;48.614;8.880;2024-02-04T15:07:08;8.80;99.90
12634;DHT22;6382;48.614;8.880;2024-02-04T15:09:34;8.80;99.90
12634;DHT22;6382;48.614;8.880;2024-02-04T15:11:59;8.80;99.90
12634;DHT22;6382;48.614;8.880;2024-02-04T15:14:26;8.70;99.90
12634;DHT22;6382;48.614;8.880;2024-02-04T15:16:51;8.70;99.90
12634;DHT22;6382;48.614;8.880;2024-02-04T15:19:17;8.70;99.90
12634;DHT22;6382;48.614;8.880;2024-02-04T15:21:42;8.70;99.90
12634;DHT22;6382;48.614;8.880;2024-02-04T15:24:08;8.60;99.90
12634;DHT22;6382;48.614;8.880;2024-02-04T15:26:34;8.60;99.90
12634;DHT22;6382;48.614;8.880;2024-02-04T15:29:01;8.60;99.90
12634;DHT22;6382;48.614;8.880;2024-02-04T15:31:27;8.60;99.90
12634;DHT22;6382;48.614;8.880;2024-02-04T15:33:53;8.60;99.90
12634;DHT22;6382;48.614;8.880;2024-02-04T15:36:19;8.60;99.90
12634;DHT22;6382;48.614;8.880;2024-02-04T15:38:45;8.60;99.90
12634;DHT22;6382;48.614;8.880;2024-02-04T15:41:10;8.50;99.90
12634;DHT22;6382;48.614;8.880;2024-02-04T15:43:35;8.50;99.90
12634;DHT22;6382;48.614;8.880;2024-02-04T15:46:01;8.50;99.90
12634;DHT22;6382;48.614;8.880;2024-02-04T15:48:31;8.40;99.90
12634;DHT22;6382;48.614;8.880;2024-02-04T15:51:00;8.30;99.90
12634;DHT22;6382;48.614;8.880;2024-02-04T15:53:26;8.30;99.90
12634;DHT22;6382;48.614;8.880;2024-02-04T15:55:51;8.20;99.90
12634;DHT22;6382;48.614;8.880;2024-02-04T15:58:17;8.20;99.90
12634;DHT22;6382;48.614;8.880;2024-02-04T16:00:42;8.10;99.90
12634;DHT22;6382;48.614;8.880;2024-02-04T16:03:08;8.00;99.90
12634;DHT22;6382;48.614;8.880;2024-02-04T16:05:34;8.00;99.90
12634;DHT22;6382;48.614;8.880;2024-02-04T16:08:00;7.90;99.90